Time;durP1;ratioP1;P1;durP2;ratioP2;P2;SDS_P1;SDS_P2;PMS_P1;PMS_P2;Temp;Humidity;BMP_temperature;BMP_pressure;BME280_temperature;BME280_humidity;BME280_pressure;Samples;Min_cycle;Max_cycle;Signal;HPM_P1;HPM_P2
2022/04/21 00:02:17;;;;;;;;;;;;;;;11.99;58.66;99562.69;5036149;28;19924;-66
2022/04/21 00:05:01;;;;;;;;;;;;;;;11.99;58.27;99564.44;5037503;28;19979;-65
2022/04/21 00:07:48;;;;;;;;;;;;;;;12.00;58.56;99563.56;5037044;28;19975;-66
2022/04/21 00:10:32;;;;;;;;;;;;;;;12.01;58.65;99565.31;5035820;28;19982;-66
2022/04/21 00:13:16;;;;;;;;;;;;;;;11.98;58.52;99562.66;5035711;28;19927;-65
2022/04/21 00:16:00;;;;;;;;;;;;;;;11.95;58.34;99566.13;5036758;28;19986;-65
2022/04/21 00:18:46;;;;;;;;;;;;;;;11.93;58.39;99564.38;5035809;28;19923;-65
2022/04/21 00:23:26;;;;;;;;;;;;;;;11.91;58.31;99564.38;5036412;28;19967;-65
2022/04/21 00:24:35;;;;;;;;;;;;;;;11.88;58.73;99557.44;5036543;28;20299;-65
2022/04/21 00:27:19;;;;;;;;;;;;;;;11.89;58.67;99563.50;5035873;28;19924;-65
2022/04/21 00:30:06;;;;;;;;;;;;;;;11.87;58.45;99562.63;5036425;28;19924;-66
2022/04/21 00:32:50;;;;;;;;;;;;;;;11.87;58.76;99554.84;5035233;28;20295;-66
2022/04/21 00:35:34;;;;;;;;;;;;;;;11.87;58.73;99560.91;5036454;28;19924;-65
2022/04/21 00:38:18;;;;;;;;;;;;;;;11.87;58.74;99553.13;5036580;28;19924;-66
2022/04/21 00:41:02;;;;;;;;;;;;;;;11.88;58.94;99557.44;5036448;28;19931;-65
2022/04/21 00:43:46;;;;;;;;;;;;;;;11.91;58.95;99558.31;5035606;28;20020;-65
2022/04/21 00:46:30;;;;;;;;;;;;;;;11.91;58.41;99555.72;5035651;28;19923;-66
2022/04/21 00:49:14;;;;;;;;;;;;;;;11.88;58.90;99541.88;5035262;28;19923;-66
2022/04/21 00:52:00;;;;;;;;;;;;;;;11.88;58.54;99552.25;5036074;28;19924;-66
2022/04/21 00:54:44;;;;;;;;;;;;;;;11.88;58.78;99543.59;5036266;28;19971;-66
2022/04/21 00:57:28;;;;;;;;;;;;;;;11.88;58.78;99544.47;5035480;28;19924;-65
2022/04/21 01:00:12;;;;;;;;;;;;;;;11.92;58.96;99547.06;5033609;28;19924;-65
2022/04/21 01:02:57;;;;;;;;;;;;;;;11.92;58.72;99547.06;5034923;28;19932;-65
2022/04/21 01:05:41;;;;;;;;;;;;;;;11.93;58.42;99553.97;5036177;28;20000;-66
2022/04/21 01:08:25;;;;;;;;;;;;;;;11.93;59.07;99549.66;5034968;28;19971;-65
2022/04/21 01:11:09;;;;;;;;;;;;;;;11.92;58.99;99547.94;5035601;28;19923;-65
2022/04/21 01:13:53;;;;;;;;;;;;;;;11.93;58.81;99546.19;5035591;28;19971;-65
2022/04/21 01:16:37;;;;;;;;;;;;;;;11.91;59.02;99545.34;5034460;28;19924;-65
2022/04/21 01:19:21;;;;;;;;;;;;;;;11.90;59.04;99543.59;5035011;28;19923;-65
2022/04/21 01:22:05;;;;;;;;;;;;;;;11.88;59.09;99544.47;5035272;28;19963;-66
2022/04/21 01:24:49;;;;;;;;;;;;;;;11.87;58.94;99550.53;5034419;28;19939;-65
2022/04/21 01:27:35;;;;;;;;;;;;;;;11.88;59.00;99551.38;5034749;28;20344;-66
2022/04/21 01:30:19;;;;;;;;;;;;;;;11.87;59.23;99544.44;5034741;28;20311;-66
2022/04/21 01:33:03;;;;;;;;;;;;;;;11.88;59.13;99544.47;5034430;28;19924;-65
2022/04/21 01:35:47;;;;;;;;;;;;;;;11.89;59.19;99547.91;5034998;28;19944;-65
2022/04/21 01:41:33;;;;;;;;;;;;;;;11.91;58.98;99545.34;5035299;28;19924;-66
2022/04/21 01:44:17;;;;;;;;;;;;;;;11.89;59.25;99545.31;5033823;28;20418;-66
2022/04/21 01:47:01;;;;;;;;;;;;;;;11.86;59.02;99550.50;5033934;28;20327;-65
2022/04/21 01:49:45;;;;;;;;;;;;;;;11.83;59.24;99546.19;5034676;28;19923;-65
2022/04/21 01:52:30;;;;;;;;;;;;;;;11.81;58.90;99544.44;5034440;28;19924;-65
2022/04/21 01:55:14;;;;;;;;;;;;;;;11.79;59.17;99544.44;5034767;28;20288;-65
2022/04/21 01:57:58;;;;;;;;;;;;;;;11.78;59.28;99544.44;5035549;28;20391;-65
2022/04/21 02:00:42;;;;;;;;;;;;;;;11.74;59.32;99538.38;5034273;28;20043;-65
2022/04/21 02:03:25;;;;;;;;;;;;;;;11.72;59.29;99543.53;5033682;28;19966;-66
2022/04/21 02:06:09;;;;;;;;;;;;;;;11.72;59.27;99540.09;5034894;28;20327;-66
2022/04/21 02:08:53;;;;;;;;;;;;;;;11.71;59.43;99543.56;5033954;28;19923;-66
2022/04/21 02:11:37;;;;;;;;;;;;;;;11.71;59.35;99544.41;5034058;28;19960;-65
2022/04/21 02:14:21;;;;;;;;;;;;;;;11.71;59.39;99546.16;5034345;28;19963;-65
2022/04/21 02:17:06;;;;;;;;;;;;;;;11.70;59.25;99539.22;5033918;28;20306;-65
2022/04/21 02:19:50;;;;;;;;;;;;;;;11.69;59.39;99540.06;5033924;28;19924;-65
2022/04/21 02:22:37;;;;;;;;;;;;;;;11.66;59.34;99537.47;5034184;28;20110;-64
2022/04/21 02:25:21;;;;;;;;;;;;;;;11.67;59.64;99537.50;5034680;28;19924;-65
2022/04/21 02:28:06;;;;;;;;;;;;;;;11.66;59.48;99540.94;5033213;28;19940;-65
2022/04/21 02:30:50;;;;;;;;;;;;;;;11.67;59.56;99534.91;5033182;28;20020;-66
2022/04/21 02:33:34;;;;;;;;;;;;;;;11.68;59.64;99535.75;5033360;28;19924;-65
2022/04/21 02:36:18;;;;;;;;;;;;;;;11.67;59.55;99537.50;5034149;28;19967;-65
2022/04/21 02:39:02;;;;;;;;;;;;;;;11.66;59.25;99522.78;5034332;28;19975;-65
2022/04/21 02:41:46;;;;;;;;;;;;;;;11.66;59.62;99524.47;5033874;28;20018;-65
2022/04/21 02:44:31;;;;;;;;;;;;;;;11.67;59.57;99516.72;5033957;28;19924;-65
2022/04/21 02:47:16;;;;;;;;;;;;;;;11.68;59.58;99509.78;5033849;28;19928;-65
2022/04/21 02:49:59;;;;;;;;;;;;;;;11.68;59.52;99523.63;5032794;28;19986;-66
2022/04/21 02:52:44;;;;;;;;;;;;;;;11.68;59.69;99522.75;5033929;28;19940;-65
2022/04/21 02:58:30;;;;;;;;;;;;;;;11.69;59.74;99514.97;5033424;28;19924;-65
2022/04/21 03:01:14;;;;;;;;;;;;;;;11.70;59.77;99524.50;5034067;28;19924;-65
2022/04/21 03:03:58;;;;;;;;;;;;;;;11.71;59.58;99518.44;5038301;28;19924;-65
2022/04/21 03:06:42;;;;;;;;;;;;;;;11.72;59.71;99516.72;5038485;28;19924;-65
2022/04/21 03:09:26;;;;;;;;;;;;;;;11.72;59.66;99527.97;5054112;28;19942;-65
2022/04/21 03:12:10;;;;;;;;;;;;;;;11.72;59.26;99524.50;5053319;28;19999;-64
2022/04/21 03:14:55;;;;;;;;;;;;;;;11.70;59.88;99526.25;5053750;28;19963;-65
2022/04/21 03:17:40;;;;;;;;;;;;;;;11.68;59.80;99522.75;5038905;28;19924;-65
2022/04/21 03:26:29;;;;;;;;;;;;;;;11.70;59.76;99534.03;5057519;28;19966;-66
2022/04/21 03:29:14;;;;;;;;;;;;;;;11.68;59.61;99518.44;5057175;28;20306;-65
2022/04/21 03:31:57;;;;;;;;;;;;;;;11.68;59.76;99521.03;5056981;28;19963;-65
2022/04/21 03:34:42;;;;;;;;;;;;;;;11.68;59.91;99521.03;5042679;28;20383;-65
2022/04/21 03:37:27;;;;;;;;;;;;;;;11.66;59.92;99517.59;5057126;28;20346;-65
2022/04/21 03:40:11;;;;;;;;;;;;;;;11.65;59.65;99522.75;5056860;28;19924;-65
2022/04/21 03:42:54;;;;;;;;;;;;;;;11.63;59.73;99522.75;5056796;28;20395;-65
2022/04/21 03:45:38;;;;;;;;;;;;;;;11.58;59.76;99530.53;5057256;28;19924;-65
2022/04/21 03:48:23;;;;;;;;;;;;;;;11.55;59.51;99530.50;5057481;28;19947;-65
2022/04/21 03:51:08;;;;;;;;;;;;;;;11.51;59.55;99527.91;5042014;28;19995;-65
2022/04/21 03:53:51;;;;;;;;;;;;;;;11.48;59.96;99523.56;5057026;28;20394;-65
2022/04/21 03:56:35;;;;;;;;;;;;;;;11.48;59.98;99522.69;5057403;28;19923;-66
2022/04/21 03:59:20;;;;;;;;;;;;;;;11.45;59.67;99527.88;5056820;28;19923;-66
2022/04/21 04:02:04;;;;;;;;;;;;;;;11.43;59.71;99525.28;5056757;28;19970;-65
2022/04/21 04:04:48;;;;;;;;;;;;;;;11.42;60.03;99526.13;5041726;28;20031;-65
2022/04/21 04:10:53;;;;;;;;;;;;;;;11.43;59.82;99520.09;5056306;28;19924;-65
2022/04/21 04:13:37;;;;;;;;;;;;;;;11.46;59.69;99530.47;5042003;28;19923;-65
2022/04/21 04:16:21;;;;;;;;;;;;;;;11.48;60.03;99530.50;5056730;28;19938;-65
2022/04/21 04:19:07;;;;;;;;;;;;;;;11.51;60.15;99527.91;5057082;28;19951;-65
2022/04/21 04:21:52;;;;;;;;;;;;;;;11.52;60.10;99527.06;5056578;28;19924;-66
2022/04/21 04:24:35;;;;;;;;;;;;;;;11.53;60.04;99529.63;5041440;28;19923;-65
2022/04/21 04:27:21;;;;;;;;;;;;;;;11.54;60.19;99528.78;5056006;28;19966;-65
2022/04/21 04:30:05;;;;;;;;;;;;;;;11.55;59.87;99527.91;5056428;28;19923;-65
2022/04/21 04:32:49;;;;;;;;;;;;;;;11.55;60.26;99527.91;5056249;28;19967;-65
2022/04/21 04:35:33;;;;;;;;;;;;;;;11.54;60.19;99522.72;5056267;28;19955;-65
2022/04/21 04:38:17;;;;;;;;;;;;;;;11.53;60.20;99523.56;5056074;28;19926;-65
2022/04/21 04:42:16;;;;;;;;;;;;;;;11.53;60.16;99528.75;5056730;28;19923;-65
2022/04/21 04:44:05;;;;;;;;;;;;;;;11.51;59.98;99526.16;5055961;28;19924;-65
2022/04/21 04:46:49;;;;;;;;;;;;;;;11.52;60.17;99529.66;5056357;28;20383;-65
2022/04/21 04:49:32;;;;;;;;;;;;;;;11.50;60.17;99524.44;5056107;28;19931;-65
2022/04/21 04:52:17;;;;;;;;;;;;;;;11.49;60.14;99533.06;5056015;28;20490;-65
2022/04/21 04:55:01;;;;;;;;;;;;;;;11.49;60.14;99533.06;5055914;28;20379;-65
2022/04/21 04:57:46;;;;;;;;;;;;;;;11.49;60.08;99529.63;5041471;28;19974;-65
2022/04/21 05:00:30;;;;;;;;;;;;;;;11.46;59.95;99535.66;5055764;28;19979;-65
2022/04/21 05:03:17;;;;;;;;;;;;;;;11.46;59.89;99529.59;5040462;28;19940;-65
2022/04/21 05:06:01;;;;;;;;;;;;;;;11.46;60.05;99537.41;5040627;28;20383;-65
2022/04/21 05:08:45;;;;;;;;;;;;;;;11.45;60.19;99539.09;5056077;28;20489;-66
2022/04/21 05:11:29;;;;;;;;;;;;;;;11.44;59.85;99537.41;5055535;28;19924;-65
2022/04/21 05:14:14;;;;;;;;;;;;;;;11.45;60.21;99539.09;5040307;28;20019;-65
2022/04/21 05:16:58;;;;;;;;;;;;;;;11.45;60.03;99528.72;5040558;28;19946;-65
2022/04/21 05:19:42;;;;;;;;;;;;;;;11.46;59.82;99540.00;5055305;28;19931;-65
2022/04/21 05:22:27;;;;;;;;;;;;;;;11.46;60.03;99540.00;5055724;28;19943;-65
2022/04/21 05:25:11;;;;;;;;;;;;;;;11.46;60.23;99534.78;5040132;28;20453;-65
2022/04/21 05:27:55;;;;;;;;;;;;;;;11.46;60.25;99535.66;5039910;28;19924;-65
2022/04/21 05:33:42;;;;;;;;;;;;;;;11.43;60.42;99530.47;5055006;28;19966;-65
2022/04/21 05:36:26;;;;;;;;;;;;;;;11.43;60.32;99530.47;5054679;28;19924;-65
2022/04/21 05:39:10;;;;;;;;;;;;;;;11.42;59.97;99539.13;5055062;28;19947;-65
2022/04/21 05:41:55;;;;;;;;;;;;;;;11.41;60.37;99537.38;5054734;28;19931;-66
2022/04/21 05:44:39;;;;;;;;;;;;;;;11.40;60.31;99531.31;5054796;28;19924;-64
2022/04/21 05:47:24;;;;;;;;;;;;;;;11.40;60.08;99530.44;5038987;28;19923;-65
2022/04/21 05:50:09;;;;;;;;;;;;;;;11.39;60.32;99534.75;5039454;28;20317;-65
2022/04/21 05:52:57;;;;;;;;;;;;;;;11.38;60.25;99534.75;5054353;28;20338;-65
2022/04/21 05:55:41;;;;;;;;;;;;;;;11.35;60.05;99532.16;5055073;28;19962;-65
2022/04/21 05:58:26;;;;;;;;;;;;;;;11.34;60.23;99538.19;5039410;28;19986;-66
2022/04/21 06:01:10;;;;;;;;;;;;;;;11.32;60.54;99537.31;5054358;28;19923;-64
2022/04/21 06:03:54;;;;;;;;;;;;;;;11.30;60.58;99531.25;5054561;28;19924;-65
2022/04/21 06:06:39;;;;;;;;;;;;;;;11.31;60.18;99527.81;5054600;28;19940;-65
2022/04/21 06:09:22;;;;;;;;;;;;;;;11.29;60.59;99525.22;5054401;28;19923;-65
2022/04/21 06:12:07;;;;;;;;;;;;;;;11.30;60.66;99526.06;5054131;28;19928;-66
2022/04/21 06:14:51;;;;;;;;;;;;;;;11.28;60.40;99520.88;5054433;28;19963;-65
2022/04/21 06:17:35;;;;;;;;;;;;;;;11.29;60.45;99526.94;5054772;28;19990;-65
2022/04/21 06:20:19;;;;;;;;;;;;;;;11.28;60.20;99533.84;5054171;28;20287;-65
2022/04/21 06:23:03;;;;;;;;;;;;;;;11.26;60.71;99539.03;5054681;28;19969;-65
2022/04/21 06:25:48;;;;;;;;;;;;;;;11.27;60.57;99530.41;5054212;28;19939;-64
2022/04/21 06:28:34;;;;;;;;;;;;;;;11.28;60.42;99531.25;5054185;28;19924;-65
2022/04/21 06:31:18;;;;;;;;;;;;;;;11.27;60.62;99538.19;5038826;28;20441;-65
2022/04/21 06:34:02;;;;;;;;;;;;;;;11.26;60.78;99527.78;5054465;28;19924;-65
2022/04/21 06:36:45;;;;;;;;;;;;;;;11.27;60.31;99533.00;5053881;28;19966;-65
2022/04/21 06:39:29;;;;;;;;;;;;;;;11.26;60.47;99532.97;5054112;28;19959;-65
2022/04/21 06:42:13;;;;;;;;;;;;;;;11.28;60.47;99539.03;5053827;28;19923;-65
2022/04/21 06:48:03;;;;;;;;;;;;;;;11.30;60.38;99537.31;5053945;28;19923;-65
2022/04/21 06:50:49;;;;;;;;;;;;;;;11.30;60.30;99536.44;5039108;28;19923;-65
2022/04/21 06:53:34;;;;;;;;;;;;;;;11.31;60.29;99540.78;5053352;28;19932;-65
2022/04/21 06:56:18;;;;;;;;;;;;;;;11.30;60.34;99539.91;5038975;28;20299;-65
2022/04/21 06:59:02;;;;;;;;;;;;;;;11.30;60.82;99539.91;5053776;28;19928;-65
2022/04/21 07:01:46;;;;;;;;;;;;;;;11.32;60.84;99530.41;5038815;28;20280;-64
2022/04/21 07:04:31;;;;;;;;;;;;;;;11.33;60.44;99526.97;5053421;28;19939;-65
2022/04/21 07:07:14;;;;;;;;;;;;;;;11.33;60.38;99526.09;5038535;28;19924;-66
2022/04/21 07:10:00;;;;;;;;;;;;;;;11.33;60.68;99529.56;5053611;28;19962;-65
2022/04/21 07:12:44;;;;;;;;;;;;;;;11.34;60.48;99528.69;5038772;28;19970;-65
2022/04/21 07:15:28;;;;;;;;;;;;;;;11.35;60.22;99533.03;5053952;28;19970;-65
2022/04/21 07:18:13;;;;;;;;;;;;;;;11.31;60.28;99533.88;5053672;28;20283;-65
2022/04/21 07:20:58;;;;;;;;;;;;;;;11.32;60.33;99538.19;5038676;28;19927;-65
2022/04/21 07:23:42;;;;;;;;;;;;;;;11.31;60.63;99531.28;5038407;28;19970;-65
2022/04/21 07:26:28;;;;;;;;;;;;;;;11.33;60.40;99539.94;5053507;28;19926;-65
2022/04/21 07:29:12;;;;;;;;;;;;;;;11.33;60.42;99536.47;5038648;28;20399;-65
2022/04/21 07:31:56;;;;;;;;;;;;;;;11.33;60.50;99533.88;5053586;28;19924;-65
2022/04/21 07:34:40;;;;;;;;;;;;;;;11.32;60.57;99533.00;5053314;28;19924;-65
2022/04/21 07:37:24;;;;;;;;;;;;;;;11.32;60.23;99527.81;5053676;28;20008;-65
2022/04/21 07:40:08;;;;;;;;;;;;;;;11.34;60.48;99530.41;5053348;28;19924;-65
2022/04/21 07:42:53;;;;;;;;;;;;;;;11.35;60.39;99524.38;5053241;28;19971;-65
2022/04/21 07:45:41;;;;;;;;;;;;;;;11.36;60.65;99521.81;5053308;28;19967;-64
2022/04/21 07:49:44;;;;;;;;;;;;;;;11.37;60.72;99525.25;5038384;28;19923;-65
2022/04/21 07:51:28;;;;;;;;;;;;;;;11.38;60.59;99521.78;5053105;28;20024;-65
2022/04/21 07:54:12;;;;;;;;;;;;;;;11.38;60.56;99516.59;5053268;28;19939;-65
2022/04/21 07:56:56;;;;;;;;;;;;;;;11.38;60.35;99519.19;5053640;28;19924;-66
2022/04/21 07:59:40;;;;;;;;;;;;;;;11.39;60.36;99523.53;5053144;28;19923;-65
2022/04/21 08:02:24;;;;;;;;;;;;;;;11.38;60.63;99520.06;5052737;28;19943;-65
2022/04/21 08:05:09;;;;;;;;;;;;;;;11.40;60.88;99518.34;5052838;28;19970;-65
2022/04/21 08:07:53;;;;;;;;;;;;;;;11.42;60.70;99520.94;5053027;28;19975;-65
2022/04/21 08:10:37;;;;;;;;;;;;;;;11.41;60.45;99517.47;5040889;28;19959;-65
2022/04/21 08:13:21;;;;;;;;;;;;;;;11.42;60.83;99514.03;5056413;28;20019;-64
2022/04/21 08:16:04;;;;;;;;;;;;;;;11.44;60.92;99506.25;5056563;28;19924;-65
2022/04/21 08:18:52;;;;;;;;;;;;;;;11.44;60.49;99511.44;5056461;28;20387;-66
2022/04/21 08:21:37;;;;;;;;;;;;;;;11.46;60.43;99519.22;5056704;28;19931;-65
2022/04/21 08:33:30;;;;;;;;;;;;;;;11.50;60.75;99516.66;5056196;28;20394;-64
2022/04/21 08:36:14;;;;;;;;;;;;;;;11.52;60.37;99511.47;5056412;28;19924;-65
2022/04/21 08:38:57;;;;;;;;;;;;;;;11.53;60.74;99505.41;5056310;28;20398;-65
2022/04/21 08:41:47;;;;;;;;;;;;;;;11.55;60.51;99514.94;5056479;28;20292;-65
2022/04/21 08:44:32;;;;;;;;;;;;;;;11.59;60.71;99508.03;5041591;28;19955;-65
2022/04/21 08:47:18;;;;;;;;;;;;;;;11.58;60.48;99506.28;5040967;28;20386;-65
2022/04/21 08:50:12;;;;;;;;;;;;;;;11.62;60.31;99504.56;5056464;28;19967;-65
2022/04/21 08:52:56;;;;;;;;;;;;;;;11.63;60.50;99501.09;5040935;28;19923;-65
2022/04/21 08:55:40;;;;;;;;;;;;;;;11.66;60.77;99502.00;5055845;28;20406;-65
2022/04/21 08:58:24;;;;;;;;;;;;;;;11.68;60.53;99489.03;5055908;28;19982;-65
2022/04/21 09:01:08;;;;;;;;;;;;;;;11.68;60.21;99494.22;5041025;28;19924;-65
2022/04/21 09:03:52;;;;;;;;;;;;;;;11.69;60.42;99494.19;5055346;28;19995;-65
2022/04/21 09:06:37;;;;;;;;;;;;;;;11.71;60.62;99489.03;5040459;28;19951;-64
2022/04/21 09:09:24;;;;;;;;;;;;;;;11.72;60.65;99494.22;5040734;28;19924;-65
2022/04/21 09:12:17;;;;;;;;;;;;;;;11.75;60.58;99490.78;5040765;28;19923;-65
2022/04/21 09:15:06;;;;;;;;;;;;;;;11.78;60.41;99489.91;5040937;28;20379;-65
2022/04/21 09:17:51;;;;;;;;;;;;;;;11.79;60.41;99487.31;5055529;28;19951;-65
2022/04/21 09:20:39;;;;;;;;;;;;;;;11.81;60.39;99480.38;5040010;28;19923;-64
2022/04/21 09:23:31;;;;;;;;;;;;;;;11.81;60.27;99480.38;5040427;28;19923;-65
2022/04/21 09:26:17;;;;;;;;;;;;;;;11.83;60.21;99473.47;5040520;28;19970;-65
2022/04/21 09:29:02;;;;;;;;;;;;;;;11.83;60.30;99478.66;5040548;28;19942;-65
2022/04/21 09:31:46;;;;;;;;;;;;;;;11.83;60.47;99481.25;5055059;28;19923;-65
2022/04/21 09:34:30;;;;;;;;;;;;;;;11.89;60.13;99477.81;5055415;28;19939;-65
2022/04/21 09:37:17;;;;;;;;;;;;;;;11.88;59.80;99478.66;5055642;28;19923;-65
2022/04/21 09:40:03;;;;;;;;;;;;;;;11.93;59.99;99473.47;5055004;28;19939;-65
2022/04/21 09:42:54;;;;;;;;;;;;;;;11.94;60.17;99480.41;5039748;28;20448;-65
2022/04/21 09:48:41;;;;;;;;;;;;;;;11.97;60.13;99467.44;5055000;28;19924;-65
2022/04/21 09:51:27;;;;;;;;;;;;;;;11.98;60.17;99474.34;5039656;28;20390;-65
2022/04/21 09:54:16;;;;;;;;;;;;;;;11.99;60.11;99476.97;5039741;28;20338;-65
2022/04/21 09:57:01;;;;;;;;;;;;;;;12.02;60.15;99470.94;5040306;28;20419;-64
2022/04/21 09:59:45;;;;;;;;;;;;;;;12.04;60.05;99464.03;5039875;28;19967;-64
2022/04/21 10:02:29;;;;;;;;;;;;;;;12.06;59.53;99470.09;5039500;28;20395;-65
2022/04/21 10:05:13;;;;;;;;;;;;;;;12.06;59.92;99464.91;5040060;28;20410;-65
2022/04/21 10:08:02;;;;;;;;;;;;;;;12.09;59.96;99459.69;5054740;28;20020;-65
2022/04/21 10:10:46;;;;;;;;;;;;;;;12.09;59.81;99454.47;5054085;28;20418;-65
2022/04/21 10:13:30;;;;;;;;;;;;;;;12.12;59.78;99456.25;5054294;28;20382;-65
2022/04/21 10:16:16;;;;;;;;;;;;;;;12.12;59.47;99459.69;5054619;28;19924;-65
2022/04/21 10:19:01;;;;;;;;;;;;;;;12.12;59.63;99453.63;5054026;28;20391;-64
2022/04/21 10:21:53;;;;;;;;;;;;;;;12.12;59.84;99451.88;5054708;28;19923;-65
2022/04/21 10:24:37;;;;;;;;;;;;;;;12.13;59.88;99451.03;5039366;28;20398;-65
2022/04/21 10:27:33;;;;;;;;;;;;;;;12.14;59.53;99451.91;5054341;28;19923;-65
2022/04/21 10:30:28;;;;;;;;;;;;;;;12.14;59.50;99446.72;5054059;28;19928;-65
2022/04/21 10:33:12;;;;;;;;;;;;;;;12.15;59.33;99444.09;5038488;28;19923;-65
2022/04/21 10:35:56;;;;;;;;;;;;;;;12.15;59.56;99440.63;5039041;28;19924;-65
2022/04/21 10:38:40;;;;;;;;;;;;;;;12.15;59.71;99428.53;5053755;28;19924;-65
2022/04/21 10:41:36;;;;;;;;;;;;;;;12.17;59.39;99429.38;5038936;28;19924;-65
2022/04/21 10:44:26;;;;;;;;;;;;;;;12.18;59.48;99427.66;5053897;28;19982;-65
2022/04/21 10:47:30;;;;;;;;;;;;;;;12.18;59.47;99422.44;5054009;28;19939;-65
2022/04/21 10:50:19;;;;;;;;;;;;;;;12.16;59.24;99418.97;5054097;28;19923;-65
2022/04/21 10:59:24;;;;;;;;;;;;;;;12.18;59.24;99407.75;5053883;28;20319;-65
2022/04/21 11:02:12;;;;;;;;;;;;;;;12.20;59.52;99404.28;5053839;28;20318;-65
2022/04/21 11:04:56;;;;;;;;;;;;;;;12.20;59.31;99402.53;5054111;28;19924;-65
2022/04/21 11:07:50;;;;;;;;;;;;;;;12.21;59.29;99400.81;5053717;28;19962;-66
2022/04/21 11:10:37;;;;;;;;;;;;;;;12.20;59.51;99405.13;5038859;28;19940;-65
2022/04/21 11:13:39;;;;;;;;;;;;;;;12.20;59.37;99394.75;5053194;28;20414;-65
2022/04/21 11:16:41;;;;;;;;;;;;;;;12.23;59.30;99393.88;5053616;28;20465;-65
2022/04/21 11:19:28;;;;;;;;;;;;;;;12.22;59.43;99387.81;5038753;28;19923;-65
2022/04/21 11:22:13;;;;;;;;;;;;;;;12.21;59.23;99385.22;5053413;28;19966;-66
2022/04/21 11:25:03;;;;;;;;;;;;;;;12.22;59.57;99379.16;5038904;28;19927;-65
2022/04/21 11:27:48;;;;;;;;;;;;;;;12.21;59.33;99374.84;5038517;28;19943;-65
2022/04/21 11:30:32;;;;;;;;;;;;;;;12.23;59.36;99375.69;5053069;28;19970;-65
2022/04/21 11:33:16;;;;;;;;;;;;;;;12.22;59.49;99377.44;5038354;28;19927;-65
2022/04/21 11:36:09;;;;;;;;;;;;;;;12.25;59.36;99369.63;5053567;28;19923;-65
2022/04/21 11:38:53;;;;;;;;;;;;;;;12.27;58.79;99367.91;5038140;28;19962;-65
2022/04/21 11:41:41;;;;;;;;;;;;;;;12.26;59.46;99363.56;5052972;28;19978;-64
2022/04/21 11:44:26;;;;;;;;;;;;;;;12.29;59.07;99360.09;5038972;28;19924;-65
2022/04/21 11:47:12;;;;;;;;;;;;;;;12.30;59.21;99362.66;5056819;28;19930;-66
2022/04/21 11:49:59;;;;;;;;;;;;;;;12.29;59.34;99362.69;5042110;28;20026;-65
2022/04/21 11:52:46;;;;;;;;;;;;;;;12.32;58.90;99352.28;5042152;28;19939;-65
2022/04/21 11:55:30;;;;;;;;;;;;;;;12.33;58.95;99356.63;5041929;28;20394;-65
2022/04/21 11:58:34;;;;;;;;;;;;;;;12.36;58.62;99355.75;5042212;28;19924;-65
2022/04/21 12:07:25;;;;;;;;;;;;;;;12.35;58.19;99347.09;5057315;28;20287;-65
2022/04/21 12:10:09;;;;;;;;;;;;;;;12.36;58.79;99346.22;5056895;28;20002;-66
2022/04/21 12:12:53;;;;;;;;;;;;;;;12.37;58.48;99334.97;5056609;28;19923;-65
2022/04/21 12:15:38;;;;;;;;;;;;;;;12.37;58.22;99334.09;5057025;28;19924;-65
2022/04/21 12:18:22;;;;;;;;;;;;;;;12.34;58.24;99332.38;5056757;28;19955;-65
2022/04/21 12:21:06;;;;;;;;;;;;;;;12.35;58.20;99336.72;5056587;28;19973;-65
2022/04/21 12:23:50;;;;;;;;;;;;;;;12.34;58.48;99330.63;5041448;28;19966;-66
2022/04/21 12:26:37;;;;;;;;;;;;;;;12.34;58.61;99327.19;5056655;28;19923;-65
2022/04/21 12:29:22;;;;;;;;;;;;;;;12.34;58.33;99322.81;5041823;28;20319;-65
2022/04/21 12:32:07;;;;;;;;;;;;;;;12.38;58.23;99317.63;5056690;28;19924;-65
2022/04/21 12:34:54;;;;;;;;;;;;;;;12.39;58.24;99315.00;5056611;28;19924;-65
2022/04/21 12:37:39;;;;;;;;;;;;;;;12.40;58.26;99319.34;5041025;28;20005;-65
2022/04/21 12:40:24;;;;;;;;;;;;;;;12.42;58.43;99314.16;5041113;28;20031;-65
2022/04/21 12:43:08;;;;;;;;;;;;;;;12.41;57.92;99313.28;5055922;28;20073;-65
2022/04/21 12:45:52;;;;;;;;;;;;;;;12.40;58.11;99308.09;5056489;28;19978;-65
2022/04/21 12:48:46;;;;;;;;;;;;;;;12.41;58.33;99307.22;5041277;28;20061;-65
2022/04/21 12:51:29;;;;;;;;;;;;;;;12.43;58.28;99298.56;5055703;28;19946;-65
2022/04/21 12:54:23;;;;;;;;;;;;;;;12.42;58.37;99294.22;5056271;28;20430;-65
2022/04/21 12:57:07;;;;;;;;;;;;;;;12.44;57.99;99292.50;5055956;28;19963;-65
2022/04/21 12:59:51;;;;;;;;;;;;;;;12.43;58.38;99289.91;5055532;28;19931;-65
2022/04/21 13:02:35;;;;;;;;;;;;;;;12.44;58.27;99289.88;5055792;28;20003;-65
2022/04/21 13:05:19;;;;;;;;;;;;;;;12.46;58.51;99282.06;5055881;28;20378;-65
2022/04/21 13:08:04;;;;;;;;;;;;;;;12.45;58.27;99275.19;5055524;28;20035;-65
2022/04/21 13:10:49;;;;;;;;;;;;;;;12.47;57.94;99279.50;5040465;28;20075;-65
2022/04/21 13:13:32;;;;;;;;;;;;;;;12.48;58.17;99270.81;5040513;28;19924;-66
2022/04/21 13:16:17;;;;;;;;;;;;;;;12.49;57.94;99272.56;5056033;28;20020;-65
2022/04/21 13:19:01;;;;;;;;;;;;;;;12.50;57.96;99268.22;5055124;28;19974;-65
2022/04/21 13:21:55;;;;;;;;;;;;;;;12.51;57.85;99266.50;5055516;28;19963;-65
2022/04/21 13:24:39;;;;;;;;;;;;;;;12.52;57.59;99252.63;5040305;28;19923;-65
2022/04/21 13:27:26;;;;;;;;;;;;;;;12.53;57.84;99250.00;5054968;28;20441;-65
2022/04/21 13:30:10;;;;;;;;;;;;;;;12.53;57.45;99251.75;5055036;28;19923;-65
2022/04/21 13:35:57;;;;;;;;;;;;;;;12.54;57.75;99236.13;5054731;28;19969;-65
2022/04/21 13:38:41;;;;;;;;;;;;;;;12.54;57.92;99237.84;5055420;28;19923;-65
2022/04/21 13:41:26;;;;;;;;;;;;;;;12.54;57.69;99238.75;5055005;28;20330;-65
2022/04/21 13:44:09;;;;;;;;;;;;;;;12.53;57.89;99239.59;5040443;28;19924;-65
2022/04/21 13:46:57;;;;;;;;;;;;;;;12.53;58.18;99230.97;5054735;28;20437;-65
2022/04/21 13:49:43;;;;;;;;;;;;;;;12.51;58.07;99227.50;5054942;28;20016;-66
2022/04/21 13:52:27;;;;;;;;;;;;;;;12.52;57.99;99235.28;5039608;28;20066;-65
2022/04/21 13:55:11;;;;;;;;;;;;;;;12.53;57.98;99216.22;5054893;28;20050;-65
2022/04/21 13:57:56;;;;;;;;;;;;;;;12.57;57.88;99224.84;5054892;28;20016;-65
2022/04/21 14:00:44;;;;;;;;;;;;;;;12.60;57.86;99224.84;5039297;28;19962;-65
2022/04/21 14:03:28;;;;;;;;;;;;;;;12.59;57.84;99213.59;5039329;28;19934;-65
2022/04/21 14:06:12;;;;;;;;;;;;;;;12.60;57.77;99212.72;5054357;28;19967;-65
2022/04/21 14:08:56;;;;;;;;;;;;;;;12.63;57.82;99209.22;5039171;28;20284;-65
2022/04/21 14:11:40;;;;;;;;;;;;;;;12.66;57.54;99208.34;5054546;28;20287;-65
2022/04/21 14:14:26;;;;;;;;;;;;;;;12.67;57.47;99216.16;5039513;28;19923;-65
2022/04/21 14:17:10;;;;;;;;;;;;;;;12.68;57.76;99210.09;5039349;28;20034;-65
2022/04/21 14:19:55;;;;;;;;;;;;;;;12.69;57.46;99210.94;5054729;28;20437;-66
2022/04/21 14:22:39;;;;;;;;;;;;;;;12.69;57.69;99216.97;5054583;28;20008;-64
2022/04/21 14:25:23;;;;;;;;;;;;;;;12.69;57.48;99216.13;5039298;28;19923;-65
2022/04/21 14:28:07;;;;;;;;;;;;;;;12.67;57.36;99207.47;5039535;28;20279;-65
2022/04/21 14:30:51;;;;;;;;;;;;;;;12.66;57.50;99209.22;5054325;28;19923;-66
2022/04/21 14:33:35;;;;;;;;;;;;;;;12.68;57.62;99209.19;5053915;28;19924;-65
2022/04/21 14:36:19;;;;;;;;;;;;;;;12.69;57.70;99209.19;5054392;28;19923;-65
2022/04/21 14:45:08;;;;;;;;;;;;;;;12.72;57.58;99216.97;5053722;28;19939;-65
2022/04/21 14:47:52;;;;;;;;;;;;;;;12.72;57.74;99209.16;5053991;28;19924;-65
2022/04/21 14:50:38;;;;;;;;;;;;;;;12.73;57.41;99218.69;5053721;28;20295;-65
2022/04/21 14:53:23;;;;;;;;;;;;;;;12.74;57.84;99215.22;5038367;28;19923;-65
2022/04/21 14:56:07;;;;;;;;;;;;;;;12.72;57.61;99211.78;5053827;28;20034;-65
2022/04/21 14:58:51;;;;;;;;;;;;;;;12.72;57.69;99210.91;5038760;28;19939;-66
2022/04/21 15:01:37;;;;;;;;;;;;;;;12.74;57.57;99209.19;5053553;28;19939;-67
2022/04/21 15:04:21;;;;;;;;;;;;;;;12.73;57.54;99199.66;5054015;28;20399;-65
2022/04/21 15:07:05;;;;;;;;;;;;;;;12.72;57.39;99193.56;5038786;28;19966;-65
2022/04/21 15:09:49;;;;;;;;;;;;;;;12.72;57.45;99197.91;5038612;28;19947;-65
2022/04/21 15:12:35;;;;;;;;;;;;;;;12.72;57.49;99195.31;5053704;28;20026;-65
2022/04/21 15:15:18;;;;;;;;;;;;;;;12.69;57.41;99193.59;5054069;28;19923;-65
2022/04/21 15:18:03;;;;;;;;;;;;;;;12.70;57.32;99192.72;5038492;28;19924;-65